sensor_id;sensor_type;location;lat;lon;timestamp;P1;durP1;ratioP1;P2;durP2;ratioP2
4638;SDS011;2332;38.646;-9.154;2023-02-13T00:01:30;13.67;;;5.40;;
4638;SDS011;2332;38.646;-9.154;2023-02-13T00:03:59;28.87;;;6.47;;
4638;SDS011;2332;38.646;-9.154;2023-02-13T00:06:24;23.33;;;6.27;;
4638;SDS011;2332;38.646;-9.154;2023-02-13T00:08:49;18.67;;;5.77;;
4638;SDS011;2332;38.646;-9.154;2023-02-13T00:11:15;24.97;;;6.30;;
4638;SDS011;2332;38.646;-9.154;2023-02-13T00:13:40;19.70;;;6.07;;
4638;SDS011;2332;38.646;-9.154;2023-02-13T00:16:06;20.40;;;5.77;;
4638;SDS011;2332;38.646;-9.154;2023-02-13T00:18:35;21.80;;;6.60;;
4638;SDS011;2332;38.646;-9.154;2023-02-13T00:21:05;18.80;;;5.83;;
4638;SDS011;2332;38.646;-9.154;2023-02-13T00:23:31;18.87;;;6.27;;
4638;SDS011;2332;38.646;-9.154;2023-02-13T00:25:57;17.07;;;5.53;;
4638;SDS011;2332;38.646;-9.154;2023-02-13T00:28:23;22.23;;;6.50;;
4638;SDS011;2332;38.646;-9.154;2023-02-13T00:30:48;21.03;;;5.67;;
4638;SDS011;2332;38.646;-9.154;2023-02-13T00:33:13;14.53;;;6.13;;
4638;SDS011;2332;38.646;-9.154;2023-02-13T00:35:39;11.33;;;5.07;;
4638;SDS011;2332;38.646;-9.154;2023-02-13T00:38:04;18.37;;;5.90;;
4638;SDS011;2332;38.646;-9.154;2023-02-13T00:40:31;13.73;;;5.43;;
4638;SDS011;2332;38.646;-9.154;2023-02-13T00:42:59;14.97;;;5.20;;
4638;SDS011;2332;38.646;-9.154;2023-02-13T00:45:25;19.23;;;5.73;;
4638;SDS011;2332;38.646;-9.154;2023-02-13T00:47:50;12.87;;;5.83;;
4638;SDS011;2332;38.646;-9.154;2023-02-13T00:50:15;13.33;;;5.57;;
4638;SDS011;2332;38.646;-9.154;2023-02-13T00:52:41;19.27;;;5.87;;
4638;SDS011;2332;38.646;-9.154;2023-02-13T00:55:06;14.77;;;6.40;;
4638;SDS011;2332;38.646;-9.154;2023-02-13T00:57:32;12.60;;;5.57;;
4638;SDS011;2332;38.646;-9.154;2023-02-13T00:59:57;15.13;;;5.80;;
4638;SDS011;2332;38.646;-9.154;2023-02-13T01:02:23;15.87;;;5.07;;
4638;SDS011;2332;38.646;-9.154;2023-02-13T01:04:48;15.57;;;5.37;;
4638;SDS011;2332;38.646;-9.154;2023-02-13T01:07:14;12.00;;;5.30;;
4638;SDS011;2332;38.646;-9.154;2023-02-13T01:09:39;17.10;;;6.60;;
4638;SDS011;2332;38.646;-9.154;2023-02-13T01:12:05;17.43;;;5.43;;
4638;SDS011;2332;38.646;-9.154;2023-02-13T01:14:30;17.70;;;6.17;;
4638;SDS011;2332;38.646;-9.154;2023-02-13T01:16:55;14.57;;;5.30;;
4638;SDS011;2332;38.646;-9.154;2023-02-13T01:19:21;17.40;;;5.47;;
4638;SDS011;2332;38.646;-9.154;2023-02-13T01:21:46;18.17;;;5.97;;
4638;SDS011;2332;38.646;-9.154;2023-02-13T01:24:11;15.87;;;5.60;;
4638;SDS011;2332;38.646;-9.154;2023-02-13T01:26:37;17.03;;;5.30;;
4638;SDS011;2332;38.646;-9.154;2023-02-13T01:29:02;16.07;;;6.00;;
4638;SDS011;2332;38.646;-9.154;2023-02-13T01:31:28;14.93;;;5.63;;
4638;SDS011;2332;38.646;-9.154;2023-02-13T01:33:56;12.50;;;5.57;;
4638;SDS011;2332;38.646;-9.154;2023-02-13T01:36:22;12.10;;;4.80;;
4638;SDS011;2332;38.646;-9.154;2023-02-13T01:38:51;11.23;;;4.73;;
4638;SDS011;2332;38.646;-9.154;2023-02-13T01:41:16;13.77;;;5.13;;
4638;SDS011;2332;38.646;-9.154;2023-02-13T01:43:49;11.30;;;5.37;;
4638;SDS011;2332;38.646;-9.154;2023-02-13T01:46:21;12.50;;;6.00;;
4638;SDS011;2332;38.646;-9.154;2023-02-13T01:48:47;16.43;;;5.80;;
4638;SDS011;2332;38.646;-9.154;2023-02-13T01:51:16;18.57;;;4.93;;
4638;SDS011;2332;38.646;-9.154;2023-02-13T01:53:47;15.50;;;5.40;;
4638;SDS011;2332;38.646;-9.154;2023-02-13T01:56:19;12.83;;;5.60;;
4638;SDS011;2332;38.646;-9.154;2023-02-13T01:58:45;23.17;;;5.57;;
4638;SDS011;2332;38.646;-9.154;2023-02-13T02:01:11;11.00;;;5.30;;
4638;SDS011;2332;38.646;-9.154;2023-02-13T02:03:38;14.67;;;5.00;;
4638;SDS011;2332;38.646;-9.154;2023-02-13T02:06:05;21.43;;;6.00;;
4638;SDS011;2332;38.646;-9.154;2023-02-13T02:08:31;11.53;;;4.63;;
4638;SDS011;2332;38.646;-9.154;2023-02-13T02:10:59;20.53;;;5.73;;
4638;SDS011;2332;38.646;-9.154;2023-02-13T02:13:26;16.73;;;5.30;;
4638;SDS011;2332;38.646;-9.154;2023-02-13T02:15:55;10.00;;;4.70;;
4638;SDS011;2332;38.646;-9.154;2023-02-13T02:18:22;20.60;;;5.50;;
4638;SDS011;2332;38.646;-9.154;2023-02-13T02:23:41;12.53;;;5.20;;
4638;SDS011;2332;38.646;-9.154;2023-02-13T02:31:42;10.67;;;5.50;;
4638;SDS011;2332;38.646;-9.154;2023-02-13T02:39:35;13.10;;;5.17;;
4638;SDS011;2332;38.646;-9.154;2023-02-13T02:47:10;17.97;;;5.50;;
4638;SDS011;2332;38.646;-9.154;2023-02-13T02:50:22;12.13;;;5.57;;
4638;SDS011;2332;38.646;-9.154;2023-02-13T02:58:14;17.70;;;5.00;;
4638;SDS011;2332;38.646;-9.154;2023-02-13T03:01:00;11.87;;;5.67;;
4638;SDS011;2332;38.646;-9.154;2023-02-13T03:04:02;16.53;;;5.63;;
4638;SDS011;2332;38.646;-9.154;2023-02-13T03:06:51;18.20;;;6.47;;
4638;SDS011;2332;38.646;-9.154;2023-02-13T03:09:22;14.30;;;5.57;;
4638;SDS011;2332;38.646;-9.154;2023-02-13T03:12:07;11.47;;;5.20;;
4638;SDS011;2332;38.646;-9.154;2023-02-13T03:14:51;22.17;;;5.43;;
4638;SDS011;2332;38.646;-9.154;2023-02-13T03:17:17;22.33;;;6.03;;
4638;SDS011;2332;38.646;-9.154;2023-02-13T03:20:11;7.47;;;5.40;;
4638;SDS011;2332;38.646;-9.154;2023-02-13T03:25:29;12.50;;;4.73;;
4638;SDS011;2332;38.646;-9.154;2023-02-13T03:28:04;17.63;;;5.40;;
4638;SDS011;2332;38.646;-9.154;2023-02-13T03:38:56;15.70;;;5.80;;
4638;SDS011;2332;38.646;-9.154;2023-02-13T03:41:27;20.03;;;6.50;;
4638;SDS011;2332;38.646;-9.154;2023-02-13T03:46:23;19.97;;;5.17;;
4638;SDS011;2332;38.646;-9.154;2023-02-13T03:48:50;12.27;;;6.50;;
4638;SDS011;2332;38.646;-9.154;2023-02-13T03:51:40;18.77;;;6.47;;
4638;SDS011;2332;38.646;-9.154;2023-02-13T03:56:44;13.77;;;5.23;;
4638;SDS011;2332;38.646;-9.154;2023-02-13T03:59:31;17.73;;;6.10;;
4638;SDS011;2332;38.646;-9.154;2023-02-13T04:02:11;16.40;;;5.97;;
4638;SDS011;2332;38.646;-9.154;2023-02-13T04:07:04;21.37;;;5.80;;
4638;SDS011;2332;38.646;-9.154;2023-02-13T04:09:30;18.10;;;6.10;;
4638;SDS011;2332;38.646;-9.154;2023-02-13T04:12:01;16.50;;;6.00;;
4638;SDS011;2332;38.646;-9.154;2023-02-13T04:14:40;16.93;;;5.40;;
4638;SDS011;2332;38.646;-9.154;2023-02-13T04:17:09;17.00;;;5.77;;
4638;SDS011;2332;38.646;-9.154;2023-02-13T04:19:36;22.50;;;5.83;;
4638;SDS011;2332;38.646;-9.154;2023-02-13T04:22:02;15.47;;;5.30;;
4638;SDS011;2332;38.646;-9.154;2023-02-13T04:24:28;18.13;;;6.07;;
4638;SDS011;2332;38.646;-9.154;2023-02-13T04:26:53;25.70;;;5.93;;
4638;SDS011;2332;38.646;-9.154;2023-02-13T04:29:20;18.67;;;6.13;;
4638;SDS011;2332;38.646;-9.154;2023-02-13T04:31:46;14.67;;;6.37;;
4638;SDS011;2332;38.646;-9.154;2023-02-13T04:34:11;19.60;;;6.00;;
4638;SDS011;2332;38.646;-9.154;2023-02-13T04:36:36;12.93;;;5.27;;
4638;SDS011;2332;38.646;-9.154;2023-02-13T04:39:02;23.43;;;6.87;;
4638;SDS011;2332;38.646;-9.154;2023-02-13T04:41:27;17.33;;;6.20;;
4638;SDS011;2332;38.646;-9.154;2023-02-13T04:43:53;15.10;;;6.57;;
4638;SDS011;2332;38.646;-9.154;2023-02-13T04:46:18;21.70;;;6.07;;
4638;SDS011;2332;38.646;-9.154;2023-02-13T04:48:43;17.43;;;5.67;;
4638;SDS011;2332;38.646;-9.154;2023-02-13T04:51:09;26.07;;;6.43;;
4638;SDS011;2332;38.646;-9.154;2023-02-13T04:53:34;20.63;;;7.50;;
4638;SDS011;2332;38.646;-9.154;2023-02-13T04:55:59;18.37;;;6.23;;
4638;SDS011;2332;38.646;-9.154;2023-02-13T04:58:25;15.77;;;6.37;;
4638;SDS011;2332;38.646;-9.154;2023-02-13T05:00:50;20.03;;;6.87;;
4638;SDS011;2332;38.646;-9.154;2023-02-13T05:03:16;18.63;;;6.17;;
4638;SDS011;2332;38.646;-9.154;2023-02-13T05:05:41;23.13;;;6.77;;
4638;SDS011;2332;38.646;-9.154;2023-02-13T05:08:07;14.47;;;6.33;;
4638;SDS011;2332;38.646;-9.154;2023-02-13T05:10:33;17.20;;;6.83;;
4638;SDS011;2332;38.646;-9.154;2023-02-13T05:12:58;25.03;;;6.77;;
4638;SDS011;2332;38.646;-9.154;2023-02-13T05:15:27;19.47;;;6.70;;
4638;SDS011;2332;38.646;-9.154;2023-02-13T05:17:52;14.43;;;6.70;;
4638;SDS011;2332;38.646;-9.154;2023-02-13T05:20:17;16.07;;;5.93;;
4638;SDS011;2332;38.646;-9.154;2023-02-13T05:22:46;21.93;;;5.90;;
4638;SDS011;2332;38.646;-9.154;2023-02-13T05:25:31;16.73;;;6.90;;
4638;SDS011;2332;38.646;-9.154;2023-02-13T05:27:56;23.43;;;6.83;;
4638;SDS011;2332;38.646;-9.154;2023-02-13T05:30:21;21.93;;;6.13;;
4638;SDS011;2332;38.646;-9.154;2023-02-13T05:32:47;28.37;;;7.03;;
4638;SDS011;2332;38.646;-9.154;2023-02-13T05:35:15;14.40;;;5.63;;
4638;SDS011;2332;38.646;-9.154;2023-02-13T05:37:40;25.23;;;7.33;;
4638;SDS011;2332;38.646;-9.154;2023-02-13T05:40:05;26.57;;;7.37;;
4638;SDS011;2332;38.646;-9.154;2023-02-13T05:42:31;19.47;;;6.80;;
4638;SDS011;2332;38.646;-9.154;2023-02-13T05:44:56;30.73;;;7.20;;
4638;SDS011;2332;38.646;-9.154;2023-02-13T05:47:24;19.10;;;6.20;;
4638;SDS011;2332;38.646;-9.154;2023-02-13T05:49:50;22.47;;;7.30;;
4638;SDS011;2332;38.646;-9.154;2023-02-13T05:52:15;26.13;;;7.10;;
4638;SDS011;2332;38.646;-9.154;2023-02-13T05:54:40;11.80;;;5.50;;
4638;SDS011;2332;38.646;-9.154;2023-02-13T05:57:06;17.70;;;6.57;;
4638;SDS011;2332;38.646;-9.154;2023-02-13T05:59:31;19.07;;;6.60;;
4638;SDS011;2332;38.646;-9.154;2023-02-13T06:01:57;25.17;;;6.87;;
4638;SDS011;2332;38.646;-9.154;2023-02-13T06:04:22;19.77;;;7.30;;
4638;SDS011;2332;38.646;-9.154;2023-02-13T06:06:47;17.80;;;6.30;;
4638;SDS011;2332;38.646;-9.154;2023-02-13T06:09:13;22.20;;;7.67;;
4638;SDS011;2332;38.646;-9.154;2023-02-13T06:11:38;23.50;;;6.30;;
4638;SDS011;2332;38.646;-9.154;2023-02-13T06:14:03;18.00;;;7.60;;
4638;SDS011;2332;38.646;-9.154;2023-02-13T06:16:29;18.00;;;7.07;;
4638;SDS011;2332;38.646;-9.154;2023-02-13T06:18:58;28.90;;;7.23;;
4638;SDS011;2332;38.646;-9.154;2023-02-13T06:21:24;27.47;;;8.13;;
4638;SDS011;2332;38.646;-9.154;2023-02-13T06:23:49;21.97;;;6.50;;
4638;SDS011;2332;38.646;-9.154;2023-02-13T06:26:17;16.83;;;6.47;;
4638;SDS011;2332;38.646;-9.154;2023-02-13T06:28:43;25.03;;;7.00;;
4638;SDS011;2332;38.646;-9.154;2023-02-13T06:31:08;19.87;;;6.67;;
4638;SDS011;2332;38.646;-9.154;2023-02-13T06:33:34;34.47;;;8.27;;
4638;SDS011;2332;38.646;-9.154;2023-02-13T06:35:59;22.70;;;6.50;;
4638;SDS011;2332;38.646;-9.154;2023-02-13T06:38:24;21.43;;;6.77;;
4638;SDS011;2332;38.646;-9.154;2023-02-13T06:40:50;28.40;;;7.23;;
4638;SDS011;2332;38.646;-9.154;2023-02-13T06:43:16;15.00;;;5.50;;
4638;SDS011;2332;38.646;-9.154;2023-02-13T06:45:42;23.17;;;6.57;;
4638;SDS011;2332;38.646;-9.154;2023-02-13T06:48:07;23.37;;;6.40;;
4638;SDS011;2332;38.646;-9.154;2023-02-13T06:50:33;22.17;;;6.70;;
4638;SDS011;2332;38.646;-9.154;2023-02-13T06:53:01;25.60;;;5.90;;
4638;SDS011;2332;38.646;-9.154;2023-02-13T06:55:26;17.27;;;6.20;;
4638;SDS011;2332;38.646;-9.154;2023-02-13T06:57:52;26.43;;;5.93;;
4638;SDS011;2332;38.646;-9.154;2023-02-13T07:00:18;20.80;;;6.30;;
4638;SDS011;2332;38.646;-9.154;2023-02-13T07:02:44;23.87;;;7.20;;
4638;SDS011;2332;38.646;-9.154;2023-02-13T07:05:09;25.73;;;7.67;;
4638;SDS011;2332;38.646;-9.154;2023-02-13T07:07:36;27.87;;;6.20;;
4638;SDS011;2332;38.646;-9.154;2023-02-13T07:10:01;23.63;;;7.00;;
4638;SDS011;2332;38.646;-9.154;2023-02-13T07:12:27;22.33;;;5.77;;
4638;SDS011;2332;38.646;-9.154;2023-02-13T07:14:53;16.80;;;5.50;;
4638;SDS011;2332;38.646;-9.154;2023-02-13T07:17:18;18.13;;;5.83;;
4638;SDS011;2332;38.646;-9.154;2023-02-13T07:19:44;21.67;;;5.70;;
4638;SDS011;2332;38.646;-9.154;2023-02-13T07:22:09;17.33;;;5.80;;
4638;SDS011;2332;38.646;-9.154;2023-02-13T07:24:34;20.43;;;5.97;;
4638;SDS011;2332;38.646;-9.154;2023-02-13T07:27:02;27.97;;;6.50;;
4638;SDS011;2332;38.646;-9.154;2023-02-13T07:29:28;18.13;;;5.37;;
4638;SDS011;2332;38.646;-9.154;2023-02-13T07:31:53;24.27;;;6.50;;
4638;SDS011;2332;38.646;-9.154;2023-02-13T07:34:18;32.13;;;5.63;;
4638;SDS011;2332;38.646;-9.154;2023-02-13T07:36:44;23.80;;;5.80;;
4638;SDS011;2332;38.646;-9.154;2023-02-13T07:39:09;19.70;;;5.83;;
4638;SDS011;2332;38.646;-9.154;2023-02-13T07:41:35;20.03;;;5.50;;
4638;SDS011;2332;38.646;-9.154;2023-02-13T07:44:00;16.83;;;5.13;;
4638;SDS011;2332;38.646;-9.154;2023-02-13T07:46:25;16.17;;;5.50;;
4638;SDS011;2332;38.646;-9.154;2023-02-13T07:48:51;15.10;;;4.83;;
4638;SDS011;2332;38.646;-9.154;2023-02-13T07:51:16;23.27;;;5.50;;
4638;SDS011;2332;38.646;-9.154;2023-02-13T07:53:42;22.63;;;5.47;;
4638;SDS011;2332;38.646;-9.154;2023-02-13T07:56:08;22.10;;;5.50;;
4638;SDS011;2332;38.646;-9.154;2023-02-13T07:58:34;18.60;;;4.63;;
4638;SDS011;2332;38.646;-9.154;2023-02-13T08:01:04;26.33;;;5.00;;
4638;SDS011;2332;38.646;-9.154;2023-02-13T08:03:30;18.13;;;4.80;;
4638;SDS011;2332;38.646;-9.154;2023-02-13T08:05:55;24.00;;;5.43;;
4638;SDS011;2332;38.646;-9.154;2023-02-13T08:08:23;15.77;;;5.40;;
4638;SDS011;2332;38.646;-9.154;2023-02-13T08:10:48;12.73;;;4.60;;
4638;SDS011;2332;38.646;-9.154;2023-02-13T08:13:32;16.67;;;5.10;;
4638;SDS011;2332;38.646;-9.154;2023-02-13T08:15:57;17.57;;;5.00;;
4638;SDS011;2332;38.646;-9.154;2023-02-13T08:18:23;15.80;;;4.70;;
4638;SDS011;2332;38.646;-9.154;2023-02-13T08:20:48;16.97;;;4.97;;
4638;SDS011;2332;38.646;-9.154;2023-02-13T08:23:14;17.87;;;5.00;;
4638;SDS011;2332;38.646;-9.154;2023-02-13T08:25:39;11.30;;;4.80;;
4638;SDS011;2332;38.646;-9.154;2023-02-13T08:28:05;22.20;;;5.27;;
4638;SDS011;2332;38.646;-9.154;2023-02-13T08:30:30;11.83;;;4.90;;
4638;SDS011;2332;38.646;-9.154;2023-02-13T08:32:56;26.40;;;5.70;;
4638;SDS011;2332;38.646;-9.154;2023-02-13T08:35:22;21.97;;;5.53;;
4638;SDS011;2332;38.646;-9.154;2023-02-13T08:37:50;15.13;;;5.10;;
4638;SDS011;2332;38.646;-9.154;2023-02-13T08:40:16;18.63;;;5.30;;
4638;SDS011;2332;38.646;-9.154;2023-02-13T08:42:41;15.67;;;5.00;;
4638;SDS011;2332;38.646;-9.154;2023-02-13T08:45:07;21.80;;;5.37;;
4638;SDS011;2332;38.646;-9.154;2023-02-13T08:47:35;29.03;;;5.90;;
4638;SDS011;2332;38.646;-9.154;2023-02-13T08:50:01;26.70;;;6.27;;
4638;SDS011;2332;38.646;-9.154;2023-02-13T08:52:26;17.33;;;5.30;;
4638;SDS011;2332;38.646;-9.154;2023-02-13T08:54:53;27.07;;;5.97;;
4638;SDS011;2332;38.646;-9.154;2023-02-13T08:57:21;19.30;;;5.67;;
4638;SDS011;2332;38.646;-9.154;2023-02-13T08:59:46;16.40;;;5.93;;
4638;SDS011;2332;38.646;-9.154;2023-02-13T09:02:12;15.00;;;4.50;;
4638;SDS011;2332;38.646;-9.154;2023-02-13T09:04:37;22.00;;;5.30;;
4638;SDS011;2332;38.646;-9.154;2023-02-13T09:07:02;24.43;;;4.97;;
4638;SDS011;2332;38.646;-9.154;2023-02-13T09:09:28;14.77;;;5.17;;
4638;SDS011;2332;38.646;-9.154;2023-02-13T09:11:53;17.03;;;5.93;;
4638;SDS011;2332;38.646;-9.154;2023-02-13T09:14:22;12.60;;;5.00;;
4638;SDS011;2332;38.646;-9.154;2023-02-13T09:16:47;18.40;;;5.00;;
4638;SDS011;2332;38.646;-9.154;2023-02-13T09:19:12;20.03;;;5.53;;
4638;SDS011;2332;38.646;-9.154;2023-02-13T09:21:38;27.90;;;5.40;;
4638;SDS011;2332;38.646;-9.154;2023-02-13T09:24:05;17.20;;;5.50;;
4638;SDS011;2332;38.646;-9.154;2023-02-13T09:26:31;17.90;;;5.60;;
4638;SDS011;2332;38.646;-9.154;2023-02-13T09:28:56;24.40;;;5.80;;
4638;SDS011;2332;38.646;-9.154;2023-02-13T09:31:22;16.40;;;4.50;;
4638;SDS011;2332;38.646;-9.154;2023-02-13T09:33:48;17.03;;;5.10;;
4638;SDS011;2332;38.646;-9.154;2023-02-13T09:36:18;16.43;;;4.83;;
4638;SDS011;2332;38.646;-9.154;2023-02-13T09:38:44;17.53;;;5.30;;
4638;SDS011;2332;38.646;-9.154;2023-02-13T09:41:32;11.43;;;5.07;;
4638;SDS011;2332;38.646;-9.154;2023-02-13T09:43:57;20.87;;;5.10;;
4638;SDS011;2332;38.646;-9.154;2023-02-13T09:46:39;16.00;;;5.17;;
4638;SDS011;2332;38.646;-9.154;2023-02-13T09:49:14;13.77;;;5.33;;
4638;SDS011;2332;38.646;-9.154;2023-02-13T09:51:44;15.03;;;4.90;;
4638;SDS011;2332;38.646;-9.154;2023-02-13T09:54:12;14.63;;;4.93;;
4638;SDS011;2332;38.646;-9.154;2023-02-13T10:01:59;18.47;;;5.30;;
4638;SDS011;2332;38.646;-9.154;2023-02-13T10:04:34;14.13;;;4.60;;
4638;SDS011;2332;38.646;-9.154;2023-02-13T10:09:55;8.27;;;3.97;;
4638;SDS011;2332;38.646;-9.154;2023-02-13T10:17:20;15.73;;;4.40;;
4638;SDS011;2332;38.646;-9.154;2023-02-13T10:19:51;18.63;;;3.70;;
4638;SDS011;2332;38.646;-9.154;2023-02-13T10:22:20;14.83;;;4.80;;
4638;SDS011;2332;38.646;-9.154;2023-02-13T10:24:48;8.30;;;3.93;;
4638;SDS011;2332;38.646;-9.154;2023-02-13T10:27:16;9.53;;;3.97;;
4638;SDS011;2332;38.646;-9.154;2023-02-13T10:29:47;14.20;;;3.20;;
4638;SDS011;2332;38.646;-9.154;2023-02-13T10:32:37;14.77;;;4.60;;
4638;SDS011;2332;38.646;-9.154;2023-02-13T10:35:14;15.80;;;3.50;;
4638;SDS011;2332;38.646;-9.154;2023-02-13T10:37:40;10.13;;;3.60;;
4638;SDS011;2332;38.646;-9.154;2023-02-13T10:40:08;12.97;;;4.30;;
4638;SDS011;2332;38.646;-9.154;2023-02-13T10:45:02;12.03;;;4.50;;
4638;SDS011;2332;38.646;-9.154;2023-02-13T10:47:35;15.17;;;4.03;;
4638;SDS011;2332;38.646;-9.154;2023-02-13T10:52:48;12.93;;;3.73;;
4638;SDS011;2332;38.646;-9.154;2023-02-13T11:00:24;7.67;;;3.53;;
4638;SDS011;2332;38.646;-9.154;2023-02-13T11:02:51;9.87;;;4.00;;
4638;SDS011;2332;38.646;-9.154;2023-02-13T11:05:23;17.77;;;3.97;;
4638;SDS011;2332;38.646;-9.154;2023-02-13T11:07:49;15.37;;;4.47;;
4638;SDS011;2332;38.646;-9.154;2023-02-13T11:10:19;10.07;;;3.77;;
4638;SDS011;2332;38.646;-9.154;2023-02-13T11:12:45;9.90;;;4.43;;
4638;SDS011;2332;38.646;-9.154;2023-02-13T11:15:30;15.07;;;4.10;;
4638;SDS011;2332;38.646;-9.154;2023-02-13T11:17:59;12.93;;;4.73;;
4638;SDS011;2332;38.646;-9.154;2023-02-13T11:20:36;10.60;;;3.83;;
4638;SDS011;2332;38.646;-9.154;2023-02-13T11:23:24;9.43;;;3.60;;
4638;SDS011;2332;38.646;-9.154;2023-02-13T11:25:54;15.33;;;3.83;;
4638;SDS011;2332;38.646;-9.154;2023-02-13T11:28:23;7.07;;;3.30;;
4638;SDS011;2332;38.646;-9.154;2023-02-13T11:30:49;13.37;;;3.67;;
4638;SDS011;2332;38.646;-9.154;2023-02-13T11:33:22;9.57;;;3.63;;
4638;SDS011;2332;38.646;-9.154;2023-02-13T11:35:48;12.47;;;4.13;;
4638;SDS011;2332;38.646;-9.154;2023-02-13T11:40:45;6.60;;;3.87;;
4638;SDS011;2332;38.646;-9.154;2023-02-13T11:43:18;8.67;;;2.93;;
4638;SDS011;2332;38.646;-9.154;2023-02-13T11:45:58;14.87;;;3.00;;
4638;SDS011;2332;38.646;-9.154;2023-02-13T11:48:27;7.37;;;3.17;;
4638;SDS011;2332;38.646;-9.154;2023-02-13T11:50:53;14.30;;;3.50;;
4638;SDS011;2332;38.646;-9.154;2023-02-13T11:53:26;12.07;;;3.67;;
4638;SDS011;2332;38.646;-9.154;2023-02-13T11:58:27;14.20;;;3.70;;
4638;SDS011;2332;38.646;-9.154;2023-02-13T12:03:37;10.60;;;2.73;;
4638;SDS011;2332;38.646;-9.154;2023-02-13T12:06:04;9.07;;;3.50;;
4638;SDS011;2332;38.646;-9.154;2023-02-13T12:08:32;13.50;;;3.00;;
4638;SDS011;2332;38.646;-9.154;2023-02-13T12:10:58;14.07;;;3.43;;
4638;SDS011;2332;38.646;-9.154;2023-02-13T12:13:26;10.03;;;3.13;;
4638;SDS011;2332;38.646;-9.154;2023-02-13T12:15:57;7.23;;;3.80;;
4638;SDS011;2332;38.646;-9.154;2023-02-13T12:21:04;6.47;;;2.90;;
4638;SDS011;2332;38.646;-9.154;2023-02-13T12:23:53;18.17;;;3.13;;
4638;SDS011;2332;38.646;-9.154;2023-02-13T12:31:54;7.87;;;3.40;;
4638;SDS011;2332;38.646;-9.154;2023-02-13T12:34:43;15.43;;;3.20;;
4638;SDS011;2332;38.646;-9.154;2023-02-13T12:39:45;10.07;;;3.00;;
4638;SDS011;2332;38.646;-9.154;2023-02-13T12:42:19;6.93;;;3.63;;
4638;SDS011;2332;38.646;-9.154;2023-02-13T12:45:09;8.93;;;3.30;;
4638;SDS011;2332;38.646;-9.154;2023-02-13T12:55:21;6.73;;;3.10;;
4638;SDS011;2332;38.646;-9.154;2023-02-13T13:10:45;11.27;;;3.63;;
4638;SDS011;2332;38.646;-9.154;2023-02-13T13:13:33;11.33;;;3.10;;
4638;SDS011;2332;38.646;-9.154;2023-02-13T13:21:25;20.30;;;4.30;;
4638;SDS011;2332;38.646;-9.154;2023-02-13T13:26:29;11.03;;;3.13;;
4638;SDS011;2332;38.646;-9.154;2023-02-13T13:29:04;12.23;;;3.10;;
4638;SDS011;2332;38.646;-9.154;2023-02-13T13:31:30;11.77;;;4.10;;
4638;SDS011;2332;38.646;-9.154;2023-02-13T13:33:57;10.23;;;3.70;;
4638;SDS011;2332;38.646;-9.154;2023-02-13T13:36:46;13.67;;;3.20;;
4638;SDS011;2332;38.646;-9.154;2023-02-13T13:39:15;8.00;;;3.50;;
4638;SDS011;2332;38.646;-9.154;2023-02-13T13:41:50;12.40;;;2.97;;
4638;SDS011;2332;38.646;-9.154;2023-02-13T13:44:21;10.23;;;3.50;;
4638;SDS011;2332;38.646;-9.154;2023-02-13T13:54:41;12.90;;;3.60;;
4638;SDS011;2332;38.646;-9.154;2023-02-13T13:57:07;10.67;;;4.33;;
4638;SDS011;2332;38.646;-9.154;2023-02-13T14:07:36;12.30;;;3.67;;
4638;SDS011;2332;38.646;-9.154;2023-02-13T14:10:02;18.97;;;3.70;;
4638;SDS011;2332;38.646;-9.154;2023-02-13T14:14:54;13.30;;;3.80;;
4638;SDS011;2332;38.646;-9.154;2023-02-13T14:20:14;11.90;;;3.40;;
4638;SDS011;2332;38.646;-9.154;2023-02-13T14:22:42;13.43;;;3.40;;
4638;SDS011;2332;38.646;-9.154;2023-02-13T14:25:19;16.73;;;3.73;;
4638;SDS011;2332;38.646;-9.154;2023-02-13T14:27:51;11.67;;;3.30;;
4638;SDS011;2332;38.646;-9.154;2023-02-13T14:32:53;12.30;;;3.77;;
4638;SDS011;2332;38.646;-9.154;2023-02-13T14:35:23;11.03;;;3.67;;
4638;SDS011;2332;38.646;-9.154;2023-02-13T14:37:50;12.87;;;4.07;;
4638;SDS011;2332;38.646;-9.154;2023-02-13T14:42:46;12.40;;;3.47;;
4638;SDS011;2332;38.646;-9.154;2023-02-13T14:45:19;17.03;;;3.73;;
4638;SDS011;2332;38.646;-9.154;2023-02-13T14:47:46;18.13;;;3.67;;
4638;SDS011;2332;38.646;-9.154;2023-02-13T14:50:22;8.23;;;3.17;;
4638;SDS011;2332;38.646;-9.154;2023-02-13T14:52:48;12.77;;;3.47;;
4638;SDS011;2332;38.646;-9.154;2023-02-13T14:57:48;8.77;;;2.93;;
4638;SDS011;2332;38.646;-9.154;2023-02-13T15:00:22;8.90;;;2.73;;
4638;SDS011;2332;38.646;-9.154;2023-02-13T15:02:50;16.80;;;3.63;;
4638;SDS011;2332;38.646;-9.154;2023-02-13T15:05:17;11.37;;;3.60;;
4638;SDS011;2332;38.646;-9.154;2023-02-13T15:07:58;11.53;;;3.17;;
4638;SDS011;2332;38.646;-9.154;2023-02-13T15:12:58;29.67;;;3.30;;
4638;SDS011;2332;38.646;-9.154;2023-02-13T15:15:30;11.43;;;3.30;;
4638;SDS011;2332;38.646;-9.154;2023-02-13T15:18:00;10.73;;;2.93;;
4638;SDS011;2332;38.646;-9.154;2023-02-13T15:20:27;10.60;;;3.73;;
4638;SDS011;2332;38.646;-9.154;2023-02-13T15:22:52;11.70;;;3.43;;
4638;SDS011;2332;38.646;-9.154;2023-02-13T15:25:32;11.97;;;3.87;;
4638;SDS011;2332;38.646;-9.154;2023-02-13T15:27:58;12.30;;;3.57;;
4638;SDS011;2332;38.646;-9.154;2023-02-13T15:30:25;12.93;;;3.40;;
4638;SDS011;2332;38.646;-9.154;2023-02-13T15:32:54;11.40;;;4.30;;
4638;SDS011;2332;38.646;-9.154;2023-02-13T15:35:24;24.17;;;4.90;;
4638;SDS011;2332;38.646;-9.154;2023-02-13T15:37:50;11.97;;;3.80;;
4638;SDS011;2332;38.646;-9.154;2023-02-13T15:40:27;15.03;;;3.07;;
4638;SDS011;2332;38.646;-9.154;2023-02-13T15:42:52;10.30;;;3.07;;
4638;SDS011;2332;38.646;-9.154;2023-02-13T15:45:18;8.47;;;3.00;;
4638;SDS011;2332;38.646;-9.154;2023-02-13T15:47:45;11.27;;;3.13;;
4638;SDS011;2332;38.646;-9.154;2023-02-13T15:50:15;8.23;;;2.57;;
4638;SDS011;2332;38.646;-9.154;2023-02-13T15:52:41;6.97;;;3.17;;
4638;SDS011;2332;38.646;-9.154;2023-02-13T15:55:40;6.10;;;2.70;;
4638;SDS011;2332;38.646;-9.154;2023-02-13T15:58:03;13.63;;;3.13;;
4638;SDS011;2332;38.646;-9.154;2023-02-13T16:00:39;10.80;;;2.97;;
4638;SDS011;2332;38.646;-9.154;2023-02-13T16:03:05;12.43;;;3.10;;
4638;SDS011;2332;38.646;-9.154;2023-02-13T16:05:33;8.90;;;3.10;;
4638;SDS011;2332;38.646;-9.154;2023-02-13T16:08:01;11.40;;;4.07;;
4638;SDS011;2332;38.646;-9.154;2023-02-13T16:10:30;7.13;;;3.20;;
4638;SDS011;2332;38.646;-9.154;2023-02-13T16:13:00;8.47;;;3.03;;
4638;SDS011;2332;38.646;-9.154;2023-02-13T16:15:27;16.17;;;3.33;;
4638;SDS011;2332;38.646;-9.154;2023-02-13T16:17:53;7.60;;;3.53;;
4638;SDS011;2332;38.646;-9.154;2023-02-13T16:20:23;14.03;;;3.73;;
4638;SDS011;2332;38.646;-9.154;2023-02-13T16:22:53;12.90;;;3.53;;
4638;SDS011;2332;38.646;-9.154;2023-02-13T16:25:22;10.03;;;3.47;;
4638;SDS011;2332;38.646;-9.154;2023-02-13T16:27:52;19.73;;;4.23;;
4638;SDS011;2332;38.646;-9.154;2023-02-13T16:30:29;13.87;;;3.87;;
4638;SDS011;2332;38.646;-9.154;2023-02-13T16:35:36;17.73;;;4.67;;
4638;SDS011;2332;38.646;-9.154;2023-02-13T16:38:02;8.70;;;3.33;;
4638;SDS011;2332;38.646;-9.154;2023-02-13T16:40:36;7.80;;;4.27;;
4638;SDS011;2332;38.646;-9.154;2023-02-13T16:45:46;14.93;;;4.30;;
4638;SDS011;2332;38.646;-9.154;2023-02-13T16:48:13;12.17;;;4.03;;
4638;SDS011;2332;38.646;-9.154;2023-02-13T16:50:39;11.53;;;3.70;;
4638;SDS011;2332;38.646;-9.154;2023-02-13T16:53:04;9.70;;;3.43;;
4638;SDS011;2332;38.646;-9.154;2023-02-13T16:55:30;13.80;;;3.93;;
4638;SDS011;2332;38.646;-9.154;2023-02-13T16:58:04;16.80;;;5.00;;
4638;SDS011;2332;38.646;-9.154;2023-02-13T17:00:31;9.10;;;3.70;;
4638;SDS011;2332;38.646;-9.154;2023-02-13T17:02:56;12.93;;;4.30;;
4638;SDS011;2332;38.646;-9.154;2023-02-13T17:05:23;15.00;;;4.30;;
4638;SDS011;2332;38.646;-9.154;2023-02-13T17:07:52;14.73;;;3.60;;
4638;SDS011;2332;38.646;-9.154;2023-02-13T17:10:22;8.50;;;4.00;;
4638;SDS011;2332;38.646;-9.154;2023-02-13T17:12:51;11.73;;;4.17;;
4638;SDS011;2332;38.646;-9.154;2023-02-13T17:15:17;16.33;;;4.07;;
4638;SDS011;2332;38.646;-9.154;2023-02-13T17:17:43;10.73;;;3.50;;
4638;SDS011;2332;38.646;-9.154;2023-02-13T17:20:13;12.57;;;3.60;;
4638;SDS011;2332;38.646;-9.154;2023-02-13T17:22:40;23.47;;;5.03;;
4638;SDS011;2332;38.646;-9.154;2023-02-13T17:25:07;10.80;;;3.53;;
4638;SDS011;2332;38.646;-9.154;2023-02-13T17:27:33;17.63;;;4.43;;